x

Diamond Shoals (41025) Wave Buoy

2:50am - Sat 25th Mar 2017 All times are EDT. -4 hours from GMT.

  • Sig Wave height 4.3ft
  • Swell Direction
  • Peak Period 4s
  • Average Period 4s
  • Wind
    22mph, 27mph gusts
  • Sea Temp 76°f
  • Air Temp 68°f
  • Sea Pressure 1027.7mb
  • Diamond Shoals
  • Diamond Shoals

More Historic Weather Station data

Upgrade to MSW Pro to gain access to the past 30 days of data for over 8000 Wavebouys and Weather Stations around the globe.

Join Pro

Comparision Forecast

View Surf forecast
   
Sat 03/25 2:50am 4.5ft 4s 4s 22 27 mph 1027.7mb 76f 68f
1:50am 4ft 4s 4s 25 29 mph 1027.9mb 76f 67f
12:50am 4ft 11s 4s 22 27 mph 1028.6mb 75f 67f
Fri 03/24 11:50pm 4.5ft 11s 4s 22 29 mph 1028.6mb 75f 67f
10:50pm 4ft 10s 4s 22 27 mph 1028.8mb 75f 67f
9:50pm 4ft 10s 5s 22 27 mph 1029mb 74f 66f
8:50pm 3.5ft 9s 5s 22 27 mph 1029.1mb 74f 66f
7:50pm 3.5ft 10s 5s 18 22 mph 1029.5mb 74f 66f
6:50pm 4ft 8s 6s 18 22 mph 1029.8mb 74f 65f
5:50pm 4ft 10s 6s 18 22 mph 1030mb 74f 66f
4:50pm 3.5ft 10s 6s 18 25 mph 1030.5mb 74f 65f
3:50pm 4.5ft 10s 7s 18 25 mph 1030.7mb 75f 65f
2:50pm 4ft 10s 7s 13 20 mph 1031.6mb 75f 64f
1:50pm 4.5ft 10s 7s 16 20 mph 1032.9mb 75f 64f
12:50pm 4.5ft 9s 7s 16 22 mph 1033.6mb 75f 63f
11:50am 5ft 9s 7s 16 22 mph 1034.1mb 75f 62f
10:50am 4.5ft 8s 7s 16 18 mph 1034.3mb 75f 61f
9:50am 5ft 10s 7s 16 22 mph 1034.3mb 75f 60f
8:50am 5.5ft 9s 8s 16 20 mph 1034.1mb 75f 59f
7:50am 5ft 10s 7s 11 16 mph 1034.3mb 75f 58f
6:50am 5.5ft 11s 8s 11 18 mph 1034.1mb 74f 58f
5:50am 6ft 10s 8s 11 16 mph 1033.6mb 74f 57f
4:50am 6.5ft 11s 8s 11 16 mph 1033.5mb 74f 57f
3:50am 7ft 10s 8s 7 13 mph 1033.5mb 74f 56f
2:50am 7ft 11s 8s 11 18 mph 1034.2mb 74f 55f
1:50am 6ft 11s 8s 7 11 mph 1035.1mb 71f 54f
12:50am 7ft 10s 8s 11 18 mph 1035mb 71f 53f
Thu 03/23 11:50pm 8ft 11s 8s 11 18 mph 1035.1mb 71f 52f
10:50pm 7.5ft 11s 8s 9 16 mph 1035.3mb 71f 51f
9:50pm 9ft 11s 9s 9 16 mph 1035.5mb 72f 50f
8:50pm 8ft 11s 8s 11 16 mph 1035.4mb 73f 49f
7:50pm 9.5ft 11s 9s 13 20 mph 1034.9mb 73f 47f
6:50pm 9ft 11s 8s 16 20 mph 1035mb 73f 47f
5:50pm 10ft 11s 8s 18 25 mph 1034.7mb 73f 47f
4:50pm 9ft 10s 8s 18 25 mph 1034.8mb 74f 46f
3:50pm 9ft 11s 8s 18 25 mph 1034.7mb 74f 46f
2:50pm 9ft 11s 8s 18 25 mph 1035mb 74f 46f
1:50pm 9ft 11s 8s 22 27 mph 1035.4mb 73f 46f
12:50pm 9ft 11s 8s 20 27 mph 1035.5mb 74f 46f
11:50am 9ft 11s 8s 20 29 mph 1035.7mb 73f 45f
10:50am 8.5ft 11s 8s 22 31 mph 1035.7mb 72f 45f
9:50am 9ft 9s 8s 22 31 mph 1034.9mb 72f 45f
8:50am 11ft 11s 8s 22 31 mph 1034mb 75f 46f
7:50am 13ft 11s 9s 25 31 mph 1033.1mb 75f 45f
6:50am 11ft 10s 8s 25 34 mph 1032.1mb 75f 46f
5:50am 11ft 11s 8s 27 34 mph 1031.2mb 75f 45f
4:50am 10ft 11s 8s 22 29 mph 1030.6mb 75f 46f
3:50am 10ft 9s 7s 25 31 mph 1029.9mb 74f 46f
2:50am 10ft 11s 8s 27 31 mph 1029.9mb 75f 46f
1:50am 9ft 10s 8s 25 31 mph 1030mb 74f 47f
12:50am 10ft 11s 8s 25 34 mph 1029.8mb 75f 47f
Wed 03/22 11:50pm 11ft 11s 8s 22 29 mph 1029.8mb 74f 47f
10:50pm 10.5ft 11s 8s 25 31 mph 1028.9mb 74f 48f
9:50pm 11ft 11s 8s 25 34 mph 1028.2mb 75f 47f
8:50pm 11ft 11s 8s 27 34 mph 1026.9mb 75f 47f
7:50pm 10ft 9s 7s 27 34 mph 1026mb 74f 48f
6:50pm 10ft 10s 7s 29 40 mph 1024.5mb 74f 48f
5:50pm 10ft 7s 7s 31 40 mph 1023.4mb 73f 48f
4:50pm 10ft 9s 7s 31 40 mph 1022.2mb 72f 49f
3:50pm 9.5ft 8s 7s 34 40 mph 1021mb 72f 49f
2:50pm 10ft 10s 7s 34 43 mph 1019.5mb 73f 51f
1:50pm 9.5ft 9s 7s 36 45 mph 1018.4mb 73f 53f
12:50pm 9ft 10s 7s 36 45 mph 1017.4mb 74f 55f
11:50am 7ft 11s 7s 31 38 mph 1016.5mb 74f 57f
10:50am 8ft 11s 7s 27 34 mph 1015.4mb 73f 56f
9:50am 8ft 11s 7s 29 36 mph 1013.7mb 73f 56f
8:50am 7.5ft 11s 7s 34 40 mph 1012.4mb 73f 56f
7:50am 6.5ft 11s 7s 25 29 mph 1011.5mb 74f 58f
6:50am 6ft 11s 7s 18 20 mph 1011.7mb 72f 59f
5:50am 5.5ft 11s 6s 29 34 mph 1010.3mb 72f 56f
4:50am 5ft 11s 8s 27 34 mph 1010mb 73f 62f
3:50am 6ft 11s 8s 16 22 mph 1010.7mb 74f 66f
2:50am 5ft 11s 8s 13 16 mph 1012.2mb 71f 63f
1:50am 5.5ft 11s 9s 13 16 mph 1012.5mb 72f 64f
12:50am 5ft 11s 8s 11 13 mph 1013.2mb 71f 64f
Tue 03/21 11:50pm 5ft 11s 9s 4 9 mph 1013.8mb 71f 64f
10:50pm 5ft 11s 8s 9 11 mph 1014.3mb 69f 64f
9:50pm 5ft 11s 8s 11 13 mph 1014.6mb 69f 62f
8:50pm 4.5ft 11s 6s 9 11 mph 1014.5mb 59f 58f
7:50pm 5ft 11s 7s 11 13 mph 1014.4mb 68f 58f
5:50pm 6ft 11s 6s 9 11 mph 1013.1mb 69f 62f
4:50pm 6ft 11s 6s 13 16 mph 1012.6mb 69f 63f
3:50pm 6ft 12s 6s 16 20 mph 1012.5mb 70f 63f
2:50pm 6ft 12s 6s 20 29 mph 1012.7mb 70f 64f
1:50pm 6ft 11s 6s 25 29 mph 1013.2mb 70f 67f
12:50pm 6ft 11s 5s 27 31 mph 1013.7mb 71f 68f
11:50am 6ft 11s 6s 22 27 mph 1014.7mb 71f 67f
10:50am 5ft 11s 6s 20 25 mph 1015.7mb 71f 66f
9:50am 5.5ft 12s 6s 18 22 mph 1016.4mb 71f 64f
8:50am 6ft 11s 7s 16 22 mph 1016.5mb 71f 63f